F/V Kab David 3 — FHZU — position and weather

sailwx.info

Track history (hours):
 
Tides and Currents Weather Stations Pressure Air Temp Water Temp Dewpoint Dewpoint Depression Visibility Wind Speed Wind Dir Waves Ship Positions

F/V Kab David 3

Last reported at 2017-Sep-21 04:52 UTC. Time now 2017-Sep-21 05:29 UTC.
Position N 46°57' W 002°50'.

Length 15 m.

Type: Other ship. MMSI: 228813000.

Date/timePositionNaut miles runAvg speedWind from/ knotsBaromVisibWave heightAir tempDewpointWater temp
2017-Sep-21 04:52N 46°57' W 002°50'4 9.2
2017-Sep-21 04:28N 46°60' W 002°47'4 9.1
2017-Sep-21 04:00N 47°04' W 002°44'510.0
2017-Sep-21 03:30N 47°08' W 002°41'4 7.9
2017-Sep-21 03:00N 47°12' W 002°38'4 9.0
2017-Sep-21 02:30N 47°16' W 002°35'4 7.7
2017-Sep-21 02:00N 47°18' W 002°31'0 0.5
2017-Sep-21 01:30N 47°18' W 002°31'0 0.0
2017-Sep-21 01:00N 47°18' W 002°31'0 0.0
2017-Sep-21 00:30N 47°18' W 002°31'0 0.0
2017-Sep-21 00:00N 47°18' W 002°31'0 0.0
2017-Sep-20 23:31N 47°18' W 002°31'0 0.0
2017-Sep-20 23:00N 47°18' W 002°31'0 0.0
2017-Sep-20 22:31N 47°18' W 002°31'0 0.0
2017-Sep-20 22:00N 47°18' W 002°31'0 0.0
2017-Sep-20 21:27N 47°18' W 002°31'0 0.0
2017-Sep-20 21:00N 47°18' W 002°31'0 0.0
2017-Sep-20 20:30N 47°18' W 002°31'0 0.0
2017-Sep-20 20:00N 47°18' W 002°31'0 0.0
2017-Sep-20 19:31N 47°18' W 002°31'0 0.0
2017-Sep-20 19:00N 47°18' W 002°31'0 0.0
2017-Sep-20 18:27N 47°18' W 002°31'0 0.0
2017-Sep-20 17:59N 47°18' W 002°31'0 0.0
2017-Sep-20 17:30N 47°18' W 002°31'0 0.0
2017-Sep-20 16:59N 47°18' W 002°31'0 0.0
2017-Sep-20 16:30N 47°18' W 002°31'3 5.9
2017-Sep-20 15:59N 47°17' W 002°35'6 9.5
2017-Sep-20 15:23N 47°13' W 002°41'22 9.9
2017-Sep-20 13:11N 46°57' W 003°03'0 0.6
2017-Sep-20 12:35N 46°57' W 003°04'0 1.2
2017-Sep-20 12:29N 46°57' W 003°04'1 1.9
2017-Sep-20 11:58N 46°56' W 003°04'1 1.8
2017-Sep-20 11:28N 46°55' W 003°04'0 0.7
2017-Sep-20 10:57N 46°55' W 003°04'0 0.4
2017-Sep-20 10:24N 46°55' W 003°04'2 3.5
2017-Sep-20 09:50N 46°53' W 003°03'3 7.6
2017-Sep-20 09:25N 46°51' W 002°60'2 2.9
2017-Sep-20 08:52N 46°50' W 002°58'0 0.7
2017-Sep-20 08:17N 46°50' W 002°58'1 3.0
2017-Sep-20 07:53N 46°50' W 002°56'1 1.2
2017-Sep-20 06:48N 46°50' W 002°55'3 3.4
2017-Sep-20 05:52N 46°52' W 002°53'0 0.5
2017-Sep-20 05:27N 46°52' W 002°53'3 6.3
2017-Sep-20 05:00N 46°55' W 002°52'5 9.4
2017-Sep-20 04:28N 46°59' W 002°48'6 9.4
2017-Sep-20 03:49N 47°05' W 002°44'3 9.2
2017-Sep-20 03:30N 47°07' W 002°42'5 9.2
2017-Sep-20 03:00N 47°11' W 002°39'5 9.2
2017-Sep-20 02:28N 47°16' W 002°35'4 8.6
2017-Sep-20 02:00N 47°19' W 002°31'1 1.6
2017-Sep-20 01:30N 47°18' W 002°31'0 0.0
2017-Sep-20 01:00N 47°18' W 002°31'0 0.0
2017-Sep-20 00:30N 47°18' W 002°31'0 0.0
2017-Sep-19 23:52N 47°18' W 002°31'0 0.0
2017-Sep-19 23:31N 47°18' W 002°31'0 0.0
2017-Sep-19 23:00N 47°18' W 002°31'0 0.0
2017-Sep-19 22:29N 47°18' W 002°31'0 0.0
2017-Sep-19 22:00N 47°18' W 002°31'0 0.0
2017-Sep-19 21:30N 47°18' W 002°31'0 0.0
2017-Sep-19 21:00N 47°18' W 002°31'0 0.0
2017-Sep-19 20:30N 47°18' W 002°31'0 0.0
2017-Sep-19 19:58N 47°18' W 002°31'0 0.0
2017-Sep-19 19:27N 47°18' W 002°31'0 0.0
2017-Sep-19 19:00N 47°18' W 002°31'0 0.0
2017-Sep-19 18:30N 47°18' W 002°31'0 0.0
2017-Sep-19 18:00N 47°18' W 002°31'0 0.0
2017-Sep-19 17:30N 47°18' W 002°31'0 0.0
2017-Sep-19 17:00N 47°18' W 002°31'15 1.1
2017-Sep-19 03:53N 47°08' W 002°47'4 9.4
2017-Sep-19 03:30N 47°10' W 002°43'5 9.1
2017-Sep-19 03:00N 47°14' W 002°39'5 9.3
2017-Sep-19 02:30N 47°17' W 002°34'2 4.8
2017-Sep-19 02:00N 47°18' W 002°31'0 0.0
2017-Sep-19 01:30N 47°18' W 002°31'0 0.0
2017-Sep-19 01:00N 47°18' W 002°31'0 0.0
2017-Sep-19 00:30N 47°18' W 002°31'0 0.0
2017-Sep-19 00:00N 47°18' W 002°31'0 0.0
2017-Sep-18 23:31N 47°18' W 002°31'0 0.0
2017-Sep-18 23:00N 47°18' W 002°31'0 0.0
2017-Sep-18 22:30N 47°18' W 002°31'0 0.0
2017-Sep-18 22:00N 47°18' W 002°31'0 0.0
2017-Sep-18 21:30N 47°18' W 002°31'0 0.0
2017-Sep-18 21:00N 47°18' W 002°31'0 0.0
2017-Sep-18 20:31N 47°18' W 002°31'0 0.0
2017-Sep-18 20:00N 47°18' W 002°31'0 0.0
2017-Sep-18 19:31N 47°18' W 002°31'0 0.0
2017-Sep-18 19:00N 47°18' W 002°31'0 0.0
2017-Sep-18 18:30N 47°18' W 002°31'0 0.0
2017-Sep-18 18:00N 47°18' W 002°31'0 0.0
2017-Sep-18 17:30N 47°18' W 002°31'0 0.0
2017-Sep-18 17:00N 47°18' W 002°31'0 0.0
2017-Sep-18 16:30N 47°18' W 002°31'27 2.4
2017-Sep-18 04:54N 46°58' W 002°58'4 9.7
2017-Sep-18 04:30N 47°01' W 002°55'8 9.7
2017-Sep-18 03:41N 47°07' W 002°47'2 9.6
2017-Sep-18 03:28N 47°08' W 002°45'4 9.3
2017-Sep-18 03:00N 47°12' W 002°41'4 9.2
2017-Sep-18 02:31N 47°15' W 002°37'5 9.1
2017-Sep-18 02:00N 47°18' W 002°32'1 2.2
2017-Sep-18 01:30N 47°18' W 002°31'0 0.0
2017-Sep-18 01:00N 47°18' W 002°31'0 0.0
2017-Sep-18 00:30N 47°18' W 002°31'0 0.0
2017-Sep-18 00:00N 47°18' W 002°31'0 0.0
2017-Sep-17 23:30N 47°18' W 002°31'0 0.0
2017-Sep-17 23:00N 47°18' W 002°31'0 0.0
2017-Sep-17 22:30N 47°18' W 002°31'0 0.0
2017-Sep-17 22:00N 47°18' W 002°31'0 0.0
2017-Sep-17 21:30N 47°18' W 002°31'0 0.0
2017-Sep-17 21:00N 47°18' W 002°31'0 0.0
2017-Sep-17 20:30N 47°18' W 002°31'0 0.0
2017-Sep-17 20:00N 47°18' W 002°31'0 0.0
2017-Sep-17 19:30N 47°18' W 002°31'0 0.0
2017-Sep-17 19:00N 47°18' W 002°31'0 0.0
2017-Sep-17 18:30N 47°18' W 002°31'0 0.0
2017-Sep-17 18:00N 47°18' W 002°31'0 0.0
2017-Sep-17 17:30N 47°18' W 002°31'0 0.0
2017-Sep-17 17:00N 47°18' W 002°31'0 0.0
2017-Sep-17 16:30N 47°18' W 002°31'0 0.0
2017-Sep-17 16:00N 47°18' W 002°31'0 0.0
2017-Sep-17 15:30N 47°18' W 002°31'0 0.0
2017-Sep-17 15:00N 47°18' W 002°31'0 0.0
2017-Sep-17 12:46N 47°18' W 002°31'0 0.0
2017-Sep-17 12:30N 47°18' W 002°31'0 0.0
2017-Sep-17 12:00N 47°18' W 002°31'0 0.0
2017-Sep-17 11:30N 47°18' W 002°31'0 0.0
2017-Sep-17 11:00N 47°18' W 002°31'0 0.0
2017-Sep-17 10:30N 47°18' W 002°31'0 0.0
2017-Sep-17 10:00N 47°18' W 002°31'0 0.0
2017-Sep-17 09:30N 47°18' W 002°31'0 0.0
2017-Sep-17 09:00N 47°18' W 002°31'0 0.0
2017-Sep-17 08:30N 47°18' W 002°31'0 0.0
2017-Sep-17 08:00N 47°18' W 002°31'0 0.0
2017-Sep-17 07:30N 47°18' W 002°31'0 0.0
2017-Sep-17 07:00N 47°18' W 002°31'0 0.0
2017-Sep-17 06:29N 47°18' W 002°31'0 0.0
2017-Sep-17 06:00N 47°18' W 002°31'0 0.0
2017-Sep-17 05:30N 47°18' W 002°31'0 0.0
2017-Sep-17 05:00N 47°18' W 002°31'0 0.0
2017-Sep-17 04:30N 47°18' W 002°31'0 0.0
2017-Sep-17 04:00N 47°18' W 002°31'0 0.0
2017-Sep-17 03:30N 47°18' W 002°31'0 0.0
2017-Sep-17 02:59N 47°18' W 002°31'0 0.0
2017-Sep-17 02:30N 47°18' W 002°31'0 0.0
2017-Sep-17 02:00N 47°18' W 002°31'0 0.0
2017-Sep-17 01:30N 47°18' W 002°31'0 0.0
2017-Sep-17 01:00N 47°18' W 002°31'0 0.0
2017-Sep-17 00:30N 47°18' W 002°31'0 0.0
2017-Sep-17 00:00N 47°18' W 002°31'0 0.0
2017-Sep-16 23:30N 47°18' W 002°31'0 0.0
2017-Sep-16 23:00N 47°18' W 002°31'0 0.0
2017-Sep-16 22:29N 47°18' W 002°31'0 0.0
2017-Sep-16 22:00N 47°18' W 002°31'0 0.0
2017-Sep-16 21:30N 47°18' W 002°31'0 0.0
2017-Sep-16 21:00N 47°18' W 002°31'0 0.0
2017-Sep-16 20:30N 47°18' W 002°31'0 0.0
2017-Sep-16 20:00N 47°18' W 002°31'0 0.0
2017-Sep-16 19:30N 47°18' W 002°31'0 0.0
2017-Sep-16 19:00N 47°18' W 002°31'0 0.0
2017-Sep-16 18:30N 47°18' W 002°31'0 0.0
2017-Sep-16 18:00N 47°18' W 002°31'0 0.0
2017-Sep-16 17:30N 47°18' W 002°31'0 0.0
2017-Sep-16 17:00N 47°18' W 002°31'0 0.0
2017-Sep-16 16:30N 47°18' W 002°31'10 0.7
2017-Sep-16 02:55N 47°11' W 002°42'4 9.7
2017-Sep-16 02:30N 47°14' W 002°38'5 9.6
2017-Sep-16 02:00N 47°18' W 002°34'2 3.8
2017-Sep-16 01:30N 47°18' W 002°31'0 0.0
2017-Sep-16 01:00N 47°18' W 002°31'0 0.0
2017-Sep-16 00:31N 47°18' W 002°31'0 0.0
2017-Sep-16 00:00N 47°18' W 002°31'0 0.0
2017-Sep-15 23:30N 47°18' W 002°31'0 0.0
2017-Sep-15 23:00N 47°18' W 002°31'0 0.0
2017-Sep-15 22:30N 47°18' W 002°31'0 0.0
2017-Sep-15 22:00N 47°18' W 002°31'0 0.0
2017-Sep-15 21:29N 47°18' W 002°31'0 0.0
2017-Sep-15 21:00N 47°18' W 002°31'0 0.0
2017-Sep-15 20:29N 47°18' W 002°31'0 0.0
2017-Sep-15 20:01N 47°18' W 002°31'0 0.0
2017-Sep-15 19:30N 47°18' W 002°31'0 0.0
2017-Sep-15 19:00N 47°18' W 002°31'0 0.0
2017-Sep-15 18:30N 47°18' W 002°31'0 0.0
2017-Sep-15 18:00N 47°18' W 002°31'0 0.0
2017-Sep-15 17:30N 47°18' W 002°31'0 0.0
2017-Sep-15 17:00N 47°18' W 002°31'1 1.1
2017-Sep-15 16:30N 47°18' W 002°31'16 1.2
2017-Sep-15 03:02N 47°07' W 002°48'1 9.8
2017-Sep-15 02:59N 47°07' W 002°47'5 9.9
2017-Sep-15 02:26N 47°11' W 002°42'4 9.8
2017-Sep-15 02:00N 47°14' W 002°38'5 9.8
2017-Sep-15 01:30N 47°18' W 002°33'2 3.1
2017-Sep-15 01:00N 47°18' W 002°31'0 0.0
2017-Sep-15 00:26N 47°18' W 002°31'0 0.0
2017-Sep-14 23:57N 47°18' W 002°31'0 0.0
2017-Sep-14 23:30N 47°18' W 002°31'0 0.0
2017-Sep-14 22:58N 47°18' W 002°31'0 0.0
2017-Sep-14 22:27N 47°18' W 002°31'0 0.0
2017-Sep-14 21:58N 47°18' W 002°31'0 0.0
2017-Sep-14 21:26N 47°18' W 002°31'0 0.0
2017-Sep-14 21:00N 47°18' W 002°31'0 0.0
2017-Sep-14 20:30N 47°18' W 002°31'0 0.0
2017-Sep-14 20:00N 47°18' W 002°31'0 0.0
2017-Sep-14 19:30N 47°18' W 002°31'0 0.0
2017-Sep-14 18:40N 47°18' W 002°31'0 0.0
2017-Sep-14 18:15N 47°18' W 002°31'0 0.0
2017-Sep-14 17:58N 47°18' W 002°31'0 0.0
2017-Sep-14 17:25N 47°18' W 002°31'0 0.0
2017-Sep-14 17:00N 47°18' W 002°31'0 0.0
2017-Sep-14 16:30N 47°18' W 002°31'0 0.0
2017-Sep-14 15:58N 47°18' W 002°31'0 0.0
2017-Sep-14 15:30N 47°18' W 002°31'0 0.0
2017-Sep-14 14:54N 47°18' W 002°31'0 0.0
2017-Sep-14 14:29N 47°18' W 002°31'0 0.0
2017-Sep-14 13:54N 47°18' W 002°31'0 0.0
2017-Sep-14 13:25N 47°18' W 002°31'0 0.0
2017-Sep-14 12:59N 47°18' W 002°31'0 0.0
2017-Sep-14 12:21N 47°18' W 002°31'0 0.0
2017-Sep-14 10:35N 47°18' W 002°31'0 0.0
2017-Sep-14 10:29N 47°18' W 002°31'0 0.0
2017-Sep-14 09:42N 47°18' W 002°31'0 0.0
2017-Sep-14 09:08N 47°18' W 002°31'0 0.0
2017-Sep-14 08:39N 47°18' W 002°31'0 0.0
2017-Sep-14 08:30N 47°18' W 002°31'0 0.0
2017-Sep-14 08:00N 47°18' W 002°31'0 0.0
2017-Sep-14 07:30N 47°18' W 002°31'0 0.0
2017-Sep-14 07:00N 47°18' W 002°31'0 0.0
2017-Sep-14 06:12N 47°18' W 002°31'0 0.0
2017-Sep-14 06:00N 47°18' W 002°31'0 0.0
2017-Sep-14 05:29N 47°18' W 002°31'0 0.0
2017-Sep-14 05:00N 47°18' W 002°31'0 0.0
2017-Sep-14 04:30N 47°18' W 002°31'0 0.0
2017-Sep-14 04:00N 47°18' W 002°31'0 0.0
2017-Sep-14 03:30N 47°18' W 002°31'6 5.8
2017-Sep-14 02:29N 47°15' W 002°38'4 8.7
2017-Sep-14 02:00N 47°18' W 002°34'2 1.5
2017-Sep-14 00:35N 47°18' W 002°31'0 0.0
2017-Sep-14 00:30N 47°18' W 002°31'0 0.0
2017-Sep-14 00:00N 47°18' W 002°31'0 0.0
2017-Sep-13 23:29N 47°18' W 002°31'0 0.0
2017-Sep-13 18:25N 47°18' W 002°31'0 0.0
2017-Sep-13 17:50N 47°18' W 002°31'0 0.0
2017-Sep-13 14:21N 47°18' W 002°31'2 5.6
2017-Sep-13 14:00N 47°20' W 002°33'2 0.2
2017-Sep-13 06:41N 47°21' W 002°31'0 0.0
2017-Sep-13 06:23N 47°21' W 002°31'0 0.0
2017-Sep-13 05:53N 47°21' W 002°31'0 0.0
2017-Sep-13 05:29N 47°21' W 002°31'0 0.0
2017-Sep-13 04:57N 47°21' W 002°31'0 0.0
2017-Sep-13 04:30N 47°21' W 002°31'0 0.0
2017-Sep-12 19:18N 47°21' W 002°31'0 0.0
2017-Sep-12 18:58N 47°21' W 002°31'0 0.0
2017-Sep-12 18:29N 47°21' W 002°31'0 0.0
2017-Sep-12 17:47N 47°21' W 002°31'0 0.0
2017-Sep-12 17:30N 47°21' W 002°31'0 0.0
2017-Sep-12 17:00N 47°21' W 002°31'0 0.0
2017-Sep-12 16:30N 47°21' W 002°31'0 0.0
2017-Sep-12 14:52N 47°21' W 002°31'  
Track history (hours):
 
Tides and Currents Weather Stations Pressure Air Temp Water Temp Dewpoint Dewpoint Depression Visibility Wind Speed Wind Dir Waves Ship Positions

F/V Kab David 3

Last reported at 2017-Sep-21 04:52 UTC. Time now 2017-Sep-21 05:29 UTC.
Position N 46°57' W 002°50'.

Length 15 m.

Type: Other ship. MMSI: 228813000.

Date/timePositionNaut miles runAvg speedWind from/ knotsBaromVisibWave heightAir tempDewpointWater temp
2017-Sep-21 04:52N 46°57' W 002°50'4 9.2
2017-Sep-21 04:28N 46°60' W 002°47'4 9.1
2017-Sep-21 04:00N 47°04' W 002°44'510.0
2017-Sep-21 03:30N 47°08' W 002°41'4 7.9
2017-Sep-21 03:00N 47°12' W 002°38'4 9.0
2017-Sep-21 02:30N 47°16' W 002°35'4 7.7
2017-Sep-21 02:00N 47°18' W 002°31'0 0.5
2017-Sep-21 01:30N 47°18' W 002°31'0 0.0
2017-Sep-21 01:00N 47°18' W 002°31'0 0.0
2017-Sep-21 00:30N 47°18' W 002°31'0 0.0
2017-Sep-21 00:00N 47°18' W 002°31'0 0.0
2017-Sep-20 23:31N 47°18' W 002°31'0 0.0
2017-Sep-20 23:00N 47°18' W 002°31'0 0.0
2017-Sep-20 22:31N 47°18' W 002°31'0 0.0
2017-Sep-20 22:00N 47°18' W 002°31'0 0.0
2017-Sep-20 21:27N 47°18' W 002°31'0 0.0
2017-Sep-20 21:00N 47°18' W 002°31'0 0.0
2017-Sep-20 20:30N 47°18' W 002°31'0 0.0
2017-Sep-20 20:00N 47°18' W 002°31'0 0.0
2017-Sep-20 19:31N 47°18' W 002°31'0 0.0
2017-Sep-20 19:00N 47°18' W 002°31'0 0.0
2017-Sep-20 18:27N 47°18' W 002°31'0 0.0
2017-Sep-20 17:59N 47°18' W 002°31'0 0.0
2017-Sep-20 17:30N 47°18' W 002°31'0 0.0
2017-Sep-20 16:59N 47°18' W 002°31'0 0.0
2017-Sep-20 16:30N 47°18' W 002°31'3 5.9
2017-Sep-20 15:59N 47°17' W 002°35'6 9.5
2017-Sep-20 15:23N 47°13' W 002°41'22 9.9
2017-Sep-20 13:11N 46°57' W 003°03'0 0.6
2017-Sep-20 12:35N 46°57' W 003°04'0 1.2
2017-Sep-20 12:29N 46°57' W 003°04'1 1.9
2017-Sep-20 11:58N 46°56' W 003°04'1 1.8
2017-Sep-20 11:28N 46°55' W 003°04'0 0.7
2017-Sep-20 10:57N 46°55' W 003°04'0 0.4
2017-Sep-20 10:24N 46°55' W 003°04'2 3.5
2017-Sep-20 09:50N 46°53' W 003°03'3 7.6
2017-Sep-20 09:25N 46°51' W 002°60'2 2.9
2017-Sep-20 08:52N 46°50' W 002°58'0 0.7
2017-Sep-20 08:17N 46°50' W 002°58'1 3.0
2017-Sep-20 07:53N 46°50' W 002°56'1 1.2
2017-Sep-20 06:48N 46°50' W 002°55'3 3.4
2017-Sep-20 05:52N 46°52' W 002°53'0 0.5
2017-Sep-20 05:27N 46°52' W 002°53'3 6.3
2017-Sep-20 05:00N 46°55' W 002°52'5 9.4
2017-Sep-20 04:28N 46°59' W 002°48'6 9.4
2017-Sep-20 03:49N 47°05' W 002°44'3 9.2
2017-Sep-20 03:30N 47°07' W 002°42'5 9.2
2017-Sep-20 03:00N 47°11' W 002°39'5 9.2
2017-Sep-20 02:28N 47°16' W 002°35'4 8.6
2017-Sep-20 02:00N 47°19' W 002°31'1 1.6
2017-Sep-20 01:30N 47°18' W 002°31'0 0.0
2017-Sep-20 01:00N 47°18' W 002°31'0 0.0
2017-Sep-20 00:30N 47°18' W 002°31'0 0.0
2017-Sep-19 23:52N 47°18' W 002°31'0 0.0
2017-Sep-19 23:31N 47°18' W 002°31'0 0.0
2017-Sep-19 23:00N 47°18' W 002°31'0 0.0
2017-Sep-19 22:29N 47°18' W 002°31'0 0.0
2017-Sep-19 22:00N 47°18' W 002°31'0 0.0
2017-Sep-19 21:30N 47°18' W 002°31'0 0.0
2017-Sep-19 21:00N 47°18' W 002°31'0 0.0
2017-Sep-19 20:30N 47°18' W 002°31'0 0.0
2017-Sep-19 19:58N 47°18' W 002°31'0 0.0
2017-Sep-19 19:27N 47°18' W 002°31'0 0.0
2017-Sep-19 19:00N 47°18' W 002°31'0 0.0
2017-Sep-19 18:30N 47°18' W 002°31'0 0.0
2017-Sep-19 18:00N 47°18' W 002°31'0 0.0
2017-Sep-19 17:30N 47°18' W 002°31'0 0.0
2017-Sep-19 17:00N 47°18' W 002°31'15 1.1
2017-Sep-19 03:53N 47°08' W 002°47'4 9.4
2017-Sep-19 03:30N 47°10' W 002°43'5 9.1
2017-Sep-19 03:00N 47°14' W 002°39'5 9.3
2017-Sep-19 02:30N 47°17' W 002°34'2 4.8
2017-Sep-19 02:00N 47°18' W 002°31'0 0.0
2017-Sep-19 01:30N 47°18' W 002°31'0 0.0
2017-Sep-19 01:00N 47°18' W 002°31'0 0.0
2017-Sep-19 00:30N 47°18' W 002°31'0 0.0
2017-Sep-19 00:00N 47°18' W 002°31'0 0.0
2017-Sep-18 23:31N 47°18' W 002°31'0 0.0
2017-Sep-18 23:00N 47°18' W 002°31'0 0.0
2017-Sep-18 22:30N 47°18' W 002°31'0 0.0
2017-Sep-18 22:00N 47°18' W 002°31'0 0.0
2017-Sep-18 21:30N 47°18' W 002°31'0 0.0
2017-Sep-18 21:00N 47°18' W 002°31'0 0.0
2017-Sep-18 20:31N 47°18' W 002°31'0 0.0
2017-Sep-18 20:00N 47°18' W 002°31'0 0.0
2017-Sep-18 19:31N 47°18' W 002°31'0 0.0
2017-Sep-18 19:00N 47°18' W 002°31'0 0.0
2017-Sep-18 18:30N 47°18' W 002°31'0 0.0
2017-Sep-18 18:00N 47°18' W 002°31'0 0.0
2017-Sep-18 17:30N 47°18' W 002°31'0 0.0
2017-Sep-18 17:00N 47°18' W 002°31'0 0.0
2017-Sep-18 16:30N 47°18' W 002°31'27 2.4
2017-Sep-18 04:54N 46°58' W 002°58'4 9.7
2017-Sep-18 04:30N 47°01' W 002°55'8 9.7
2017-Sep-18 03:41N 47°07' W 002°47'2 9.6
2017-Sep-18 03:28N 47°08' W 002°45'4 9.3
2017-Sep-18 03:00N 47°12' W 002°41'4 9.2
2017-Sep-18 02:31N 47°15' W 002°37'5 9.1
2017-Sep-18 02:00N 47°18' W 002°32'1 2.2
2017-Sep-18 01:30N 47°18' W 002°31'0 0.0
2017-Sep-18 01:00N 47°18' W 002°31'0 0.0
2017-Sep-18 00:30N 47°18' W 002°31'0 0.0
2017-Sep-18 00:00N 47°18' W 002°31'0 0.0
2017-Sep-17 23:30N 47°18' W 002°31'0 0.0
2017-Sep-17 23:00N 47°18' W 002°31'0 0.0
2017-Sep-17 22:30N 47°18' W 002°31'0 0.0
2017-Sep-17 22:00N 47°18' W 002°31'0 0.0
2017-Sep-17 21:30N 47°18' W 002°31'0 0.0
2017-Sep-17 21:00N 47°18' W 002°31'0 0.0
2017-Sep-17 20:30N 47°18' W 002°31'0 0.0
2017-Sep-17 20:00N 47°18' W 002°31'0 0.0
2017-Sep-17 19:30N 47°18' W 002°31'0 0.0
2017-Sep-17 19:00N 47°18' W 002°31'0 0.0
2017-Sep-17 18:30N 47°18' W 002°31'0 0.0
2017-Sep-17 18:00N 47°18' W 002°31'0 0.0
2017-Sep-17 17:30N 47°18' W 002°31'0 0.0
2017-Sep-17 17:00N 47°18' W 002°31'0 0.0
2017-Sep-17 16:30N 47°18' W 002°31'0 0.0
2017-Sep-17 16:00N 47°18' W 002°31'0 0.0
2017-Sep-17 15:30N 47°18' W 002°31'0 0.0
2017-Sep-17 15:00N 47°18' W 002°31'0 0.0
2017-Sep-17 12:46N 47°18' W 002°31'0 0.0
2017-Sep-17 12:30N 47°18' W 002°31'0 0.0
2017-Sep-17 12:00N 47°18' W 002°31'0 0.0
2017-Sep-17 11:30N 47°18' W 002°31'0 0.0
2017-Sep-17 11:00N 47°18' W 002°31'0 0.0
2017-Sep-17 10:30N 47°18' W 002°31'0 0.0
2017-Sep-17 10:00N 47°18' W 002°31'0 0.0
2017-Sep-17 09:30N 47°18' W 002°31'0 0.0
2017-Sep-17 09:00N 47°18' W 002°31'0 0.0
2017-Sep-17 08:30N 47°18' W 002°31'0 0.0
2017-Sep-17 08:00N 47°18' W 002°31'0 0.0
2017-Sep-17 07:30N 47°18' W 002°31'0 0.0
2017-Sep-17 07:00N 47°18' W 002°31'0 0.0
2017-Sep-17 06:29N 47°18' W 002°31'0 0.0
2017-Sep-17 06:00N 47°18' W 002°31'0 0.0
2017-Sep-17 05:30N 47°18' W 002°31'0 0.0
2017-Sep-17 05:00N 47°18' W 002°31'0 0.0
2017-Sep-17 04:30N 47°18' W 002°31'0 0.0
2017-Sep-17 04:00N 47°18' W 002°31'0 0.0
2017-Sep-17 03:30N 47°18' W 002°31'0 0.0
2017-Sep-17 02:59N 47°18' W 002°31'0 0.0
2017-Sep-17 02:30N 47°18' W 002°31'0 0.0
2017-Sep-17 02:00N 47°18' W 002°31'0 0.0
2017-Sep-17 01:30N 47°18' W 002°31'0 0.0
2017-Sep-17 01:00N 47°18' W 002°31'0 0.0
2017-Sep-17 00:30N 47°18' W 002°31'0 0.0
2017-Sep-17 00:00N 47°18' W 002°31'0 0.0
2017-Sep-16 23:30N 47°18' W 002°31'0 0.0
2017-Sep-16 23:00N 47°18' W 002°31'0 0.0
2017-Sep-16 22:29N 47°18' W 002°31'0 0.0
2017-Sep-16 22:00N 47°18' W 002°31'0 0.0
2017-Sep-16 21:30N 47°18' W 002°31'0 0.0
2017-Sep-16 21:00N 47°18' W 002°31'0 0.0
2017-Sep-16 20:30N 47°18' W 002°31'0 0.0
2017-Sep-16 20:00N 47°18' W 002°31'0 0.0
2017-Sep-16 19:30N 47°18' W 002°31'0 0.0
2017-Sep-16 19:00N 47°18' W 002°31'0 0.0
2017-Sep-16 18:30N 47°18' W 002°31'0 0.0
2017-Sep-16 18:00N 47°18' W 002°31'0 0.0
2017-Sep-16 17:30N 47°18' W 002°31'0 0.0
2017-Sep-16 17:00N 47°18' W 002°31'0 0.0
2017-Sep-16 16:30N 47°18' W 002°31'10 0.7
2017-Sep-16 02:55N 47°11' W 002°42'4 9.7
2017-Sep-16 02:30N 47°14' W 002°38'5 9.6
2017-Sep-16 02:00N 47°18' W 002°34'2 3.8
2017-Sep-16 01:30N 47°18' W 002°31'0 0.0
2017-Sep-16 01:00N 47°18' W 002°31'0 0.0
2017-Sep-16 00:31N 47°18' W 002°31'0 0.0
2017-Sep-16 00:00N 47°18' W 002°31'0 0.0
2017-Sep-15 23:30N 47°18' W 002°31'0 0.0
2017-Sep-15 23:00N 47°18' W 002°31'0 0.0
2017-Sep-15 22:30N 47°18' W 002°31'0 0.0
2017-Sep-15 22:00N 47°18' W 002°31'0 0.0
2017-Sep-15 21:29N 47°18' W 002°31'0 0.0
2017-Sep-15 21:00N 47°18' W 002°31'0 0.0
2017-Sep-15 20:29N 47°18' W 002°31'0 0.0
2017-Sep-15 20:01N 47°18' W 002°31'0 0.0
2017-Sep-15 19:30N 47°18' W 002°31'0 0.0
2017-Sep-15 19:00N 47°18' W 002°31'0 0.0
2017-Sep-15 18:30N 47°18' W 002°31'0 0.0
2017-Sep-15 18:00N 47°18' W 002°31'0 0.0
2017-Sep-15 17:30N 47°18' W 002°31'0 0.0
2017-Sep-15 17:00N 47°18' W 002°31'1 1.1
2017-Sep-15 16:30N 47°18' W 002°31'16 1.2
2017-Sep-15 03:02N 47°07' W 002°48'1 9.8
2017-Sep-15 02:59N 47°07' W 002°47'5 9.9
2017-Sep-15 02:26N 47°11' W 002°42'4 9.8
2017-Sep-15 02:00N 47°14' W 002°38'5 9.8
2017-Sep-15 01:30N 47°18' W 002°33'2 3.1
2017-Sep-15 01:00N 47°18' W 002°31'0 0.0
2017-Sep-15 00:26N 47°18' W 002°31'0 0.0
2017-Sep-14 23:57N 47°18' W 002°31'0 0.0
2017-Sep-14 23:30N 47°18' W 002°31'0 0.0
2017-Sep-14 22:58N 47°18' W 002°31'0 0.0
2017-Sep-14 22:27N 47°18' W 002°31'0 0.0
2017-Sep-14 21:58N 47°18' W 002°31'0 0.0
2017-Sep-14 21:26N 47°18' W 002°31'0 0.0
2017-Sep-14 21:00N 47°18' W 002°31'0 0.0
2017-Sep-14 20:30N 47°18' W 002°31'0 0.0
2017-Sep-14 20:00N 47°18' W 002°31'0 0.0
2017-Sep-14 19:30N 47°18' W 002°31'0 0.0
2017-Sep-14 18:40N 47°18' W 002°31'0 0.0
2017-Sep-14 18:15N 47°18' W 002°31'0 0.0
2017-Sep-14 17:58N 47°18' W 002°31'0 0.0
2017-Sep-14 17:25N 47°18' W 002°31'0 0.0
2017-Sep-14 17:00N 47°18' W 002°31'0 0.0
2017-Sep-14 16:30N 47°18' W 002°31'0 0.0
2017-Sep-14 15:58N 47°18' W 002°31'0 0.0
2017-Sep-14 15:30N 47°18' W 002°31'0 0.0
2017-Sep-14 14:54N 47°18' W 002°31'0 0.0
2017-Sep-14 14:29N 47°18' W 002°31'0 0.0
2017-Sep-14 13:54N 47°18' W 002°31'0 0.0
2017-Sep-14 13:25N 47°18' W 002°31'0 0.0
2017-Sep-14 12:59N 47°18' W 002°31'0 0.0
2017-Sep-14 12:21N 47°18' W 002°31'0 0.0
2017-Sep-14 10:35N 47°18' W 002°31'0 0.0
2017-Sep-14 10:29N 47°18' W 002°31'0 0.0
2017-Sep-14 09:42N 47°18' W 002°31'0 0.0
2017-Sep-14 09:08N 47°18' W 002°31'0 0.0
2017-Sep-14 08:39N 47°18' W 002°31'0 0.0
2017-Sep-14 08:30N 47°18' W 002°31'0 0.0
2017-Sep-14 08:00N 47°18' W 002°31'0 0.0
2017-Sep-14 07:30N 47°18' W 002°31'0 0.0
2017-Sep-14 07:00N 47°18' W 002°31'0 0.0
2017-Sep-14 06:12N 47°18' W 002°31'0 0.0
2017-Sep-14 06:00N 47°18' W 002°31'0 0.0
2017-Sep-14 05:29N 47°18' W 002°31'0 0.0
2017-Sep-14 05:00N 47°18' W 002°31'0 0.0
2017-Sep-14 04:30N 47°18' W 002°31'0 0.0
2017-Sep-14 04:00N 47°18' W 002°31'0 0.0
2017-Sep-14 03:30N 47°18' W 002°31'6 5.8
2017-Sep-14 02:29N 47°15' W 002°38'4 8.7
2017-Sep-14 02:00N 47°18' W 002°34'2 1.5
2017-Sep-14 00:35N 47°18' W 002°31'0 0.0
2017-Sep-14 00:30N 47°18' W 002°31'0 0.0
2017-Sep-14 00:00N 47°18' W 002°31'0 0.0
2017-Sep-13 23:29N 47°18' W 002°31'0 0.0
2017-Sep-13 18:25N 47°18' W 002°31'0 0.0
2017-Sep-13 17:50N 47°18' W 002°31'0 0.0
2017-Sep-13 14:21N 47°18' W 002°31'2 5.6
2017-Sep-13 14:00N 47°20' W 002°33'2 0.2
2017-Sep-13 06:41N 47°21' W 002°31'0 0.0
2017-Sep-13 06:23N 47°21' W 002°31'0 0.0
2017-Sep-13 05:53N 47°21' W 002°31'0 0.0
2017-Sep-13 05:29N 47°21' W 002°31'0 0.0
2017-Sep-13 04:57N 47°21' W 002°31'0 0.0
2017-Sep-13 04:30N 47°21' W 002°31'0 0.0
2017-Sep-12 19:18N 47°21' W 002°31'0 0.0
2017-Sep-12 18:58N 47°21' W 002°31'0 0.0
2017-Sep-12 18:29N 47°21' W 002°31'0 0.0
2017-Sep-12 17:47N 47°21' W 002°31'0 0.0
2017-Sep-12 17:30N 47°21' W 002°31'0 0.0
2017-Sep-12 17:00N 47°21' W 002°31'0 0.0
2017-Sep-12 16:30N 47°21' W 002°31'0 0.0
2017-Sep-12 14:52N 47°21' W 002°31'  

Dump ship's entire track history